createdAt,value
2022-08-09T00:00:44.457Z,2.70
2022-08-09T00:01:54.635Z,2.55
2022-08-09T00:02:57.200Z,3.15
2022-08-09T00:04:05.454Z,3.10
2022-08-09T00:06:19.202Z,3.07
2022-08-09T00:06:40.734Z,3.70
2022-08-09T00:07:46.147Z,2.70
2022-08-09T00:08:51.884Z,3.63
2022-08-09T00:09:54.021Z,3.05
2022-08-09T00:10:55.920Z,3.40
2022-08-09T00:12:04.034Z,2.75
2022-08-09T00:13:16.910Z,2.72
2022-08-09T00:14:22.034Z,3.25
2022-08-09T00:15:59.918Z,2.80
2022-08-09T00:17:00.600Z,2.63
2022-08-09T00:18:05.643Z,2.88
2022-08-09T00:19:13.522Z,2.67
2022-08-09T00:20:21.208Z,3.13
2022-08-09T00:21:23.992Z,2.92
2022-08-09T00:22:35.038Z,3.13
2022-08-09T00:23:56.095Z,2.90
2022-08-09T00:25:00.458Z,2.97
2022-08-09T00:26:07.523Z,2.90
2022-08-09T00:27:09.389Z,2.92
2022-08-09T00:28:11.195Z,3.70
2022-08-09T00:29:39.652Z,3.88
2022-08-09T00:30:35.422Z,2.35
2022-08-09T00:31:58.138Z,2.28
2022-08-09T00:32:59.980Z,2.50
2022-08-09T00:34:01.756Z,3.00
2022-08-09T00:35:04.734Z,2.60
2022-08-09T00:36:06.764Z,3.47
2022-08-09T00:37:10.231Z,3.28
2022-08-09T00:38:13.726Z,2.90
2022-08-09T00:40:09.522Z,2.93
2022-08-09T00:40:40.395Z,2.53
2022-08-09T00:44:13.137Z,2.85
2022-08-09T00:44:16.200Z,3.10
2022-08-09T00:44:40.578Z,2.80
2022-08-09T00:45:47.448Z,3.08
2022-08-09T00:47:04.522Z,3.10
2022-08-09T00:48:07.150Z,2.80
2022-08-09T00:49:09.945Z,3.15
2022-08-09T00:50:14.601Z,3.38
2022-08-09T00:51:17.935Z,2.77
2022-08-09T00:52:20.340Z,2.97
2022-08-09T00:53:24.189Z,2.72
2022-08-09T00:54:31.634Z,2.80
2022-08-09T00:56:05.304Z,2.45
2022-08-09T00:57:00.555Z,2.42
2022-08-09T00:58:03.532Z,2.67
2022-08-09T00:59:07.749Z,2.30
2022-08-09T01:00:22.049Z,2.90
2022-08-09T01:01:45.016Z,2.90
2022-08-09T01:02:54.743Z,2.80
2022-08-09T01:04:12.895Z,3.00
2022-08-09T01:05:51.598Z,2.50
2022-08-09T01:07:14.024Z,3.15
2022-08-09T01:08:30.027Z,2.97
2022-08-09T01:09:36.712Z,3.13
2022-08-09T01:11:00.567Z,2.78
2022-08-09T01:12:14.331Z,2.50
2022-08-09T01:14:00.363Z,2.80
2022-08-09T01:15:05.874Z,2.85
2022-08-09T01:16:13.054Z,3.30
2022-08-09T01:17:24.104Z,3.00
2022-08-09T01:18:31.335Z,2.92
2022-08-09T01:19:51.684Z,3.10
2022-08-09T01:21:41.115Z,3.50
2022-08-09T01:23:12.328Z,2.95
2022-08-09T01:24:50.537Z,2.67
2022-08-09T01:26:08.913Z,2.65
2022-08-09T01:27:13.325Z,2.95
2022-08-09T01:28:18.488Z,2.85
2022-08-09T01:29:29.466Z,2.70
2022-08-09T01:30:54.820Z,2.80
2022-08-09T01:32:32.698Z,3.10
2022-08-09T01:33:27.441Z,2.33
2022-08-09T01:34:31.850Z,3.10
2022-08-09T01:35:42.529Z,3.70
2022-08-09T01:36:46.416Z,2.75
2022-08-09T01:38:07.702Z,2.80
2022-08-09T01:39:13.375Z,3.20
2022-08-09T01:40:22.960Z,3.10
2022-08-09T01:41:32.923Z,2.80
2022-08-09T01:42:36.578Z,2.80
2022-08-09T01:43:51.768Z,2.85
2022-08-09T01:44:55.834Z,2.83
2022-08-09T01:45:58.706Z,3.00
2022-08-09T01:47:03.190Z,3.50
2022-08-09T01:48:05.995Z,3.30
2022-08-09T01:49:14.854Z,4.15
2022-08-09T01:50:18.738Z,3.05
2022-08-09T01:51:33.765Z,3.30
2022-08-09T01:52:37.356Z,3.17
2022-08-09T01:53:44.956Z,3.22
2022-08-09T01:54:56.267Z,2.97
2022-08-09T01:55:59.536Z,3.63
2022-08-09T01:57:08.125Z,3.15
2022-08-09T01:58:10.910Z,3.38
2022-08-09T01:59:18.130Z,3.10
2022-08-09T02:00:34.631Z,3.25
2022-08-09T02:01:58.055Z,3.72
2022-08-09T02:03:05.093Z,3.30
2022-08-09T02:04:10.622Z,3.33
2022-08-09T02:05:15.897Z,2.97
2022-08-09T02:06:45.577Z,3.47
2022-08-09T02:08:40.366Z,3.08
2022-08-09T02:09:42.542Z,3.25
2022-08-09T02:10:51.242Z,3.47
2022-08-09T02:11:54.682Z,3.65
2022-08-09T02:13:04.165Z,3.47
2022-08-09T02:14:09.443Z,3.30
2022-08-09T02:15:16.797Z,3.20
2022-08-09T02:16:33.865Z,4.43
2022-08-09T02:17:59.933Z,3.70
2022-08-09T02:19:10.348Z,3.90
2022-08-09T02:20:15.898Z,4.05
2022-08-09T02:21:32.360Z,4.30
2022-08-09T02:23:03.539Z,4.00
2022-08-09T02:24:11.754Z,4.43
2022-08-09T02:25:32.995Z,3.97
2022-08-09T02:26:46.332Z,3.80
2022-08-09T02:28:17.922Z,4.30
2022-08-09T02:29:23.588Z,4.77
2022-08-09T02:30:29.308Z,4.05
2022-08-09T02:31:36.216Z,4.28
2022-08-09T02:32:43.300Z,3.65
2022-08-09T02:34:06.263Z,5.40
2022-08-09T02:35:18.701Z,4.95
2022-08-09T02:36:31.304Z,5.25
2022-08-09T02:37:37.159Z,5.40
2022-08-09T02:38:49.740Z,5.43
2022-08-09T02:40:01.668Z,5.70
2022-08-09T02:41:10.539Z,5.80
2022-08-09T02:42:24.758Z,5.68
2022-08-09T02:43:29.426Z,5.75
2022-08-09T02:44:51.530Z,4.65
2022-08-09T02:45:56.868Z,5.10
2022-08-09T02:47:04.277Z,5.50
2022-08-09T02:48:12.247Z,6.13
2022-08-09T02:49:41.329Z,6.07
2022-08-09T02:50:55.731Z,5.88
2022-08-09T02:52:00.314Z,5.90
2022-08-09T02:53:10.617Z,5.40
2022-08-09T02:54:28.474Z,5.28
2022-08-09T02:55:46.318Z,5.63
2022-08-09T02:57:13.545Z,5.75
2022-08-09T02:58:35.413Z,6.07
2022-08-09T02:59:57.881Z,4.65
2022-08-09T03:01:06.096Z,5.60
2022-08-09T03:02:16.774Z,5.70
2022-08-09T03:03:21.556Z,5.47
2022-08-09T03:04:43.236Z,6.22
2022-08-09T03:05:49.577Z,5.90
2022-08-09T03:06:59.857Z,5.30
2022-08-09T03:08:17.176Z,5.78
2022-08-09T03:09:20.583Z,5.35
2022-08-09T03:10:24.760Z,5.90
2022-08-09T03:12:06.555Z,5.38
2022-08-09T03:12:52.120Z,5.38
2022-08-09T03:14:01.389Z,5.50
2022-08-09T03:15:06.434Z,5.90
2022-08-09T03:16:12.335Z,6.00
2022-08-09T03:17:20.534Z,5.53
2022-08-09T03:18:30.983Z,5.63
2022-08-09T03:19:58.909Z,5.50
2022-08-09T03:20:58.468Z,6.28
2022-08-09T03:22:03.143Z,6.03
2022-08-09T03:23:15.195Z,5.55
2022-08-09T03:24:31.630Z,6.70
2022-08-09T03:25:59.428Z,5.35
2022-08-09T03:27:09.505Z,5.10
2022-08-09T03:28:13.767Z,6.25
2022-08-09T03:29:23.310Z,5.10
2022-08-09T03:30:30.026Z,6.70
2022-08-09T03:31:42.521Z,5.20
2022-08-09T03:33:00.532Z,5.40
2022-08-09T03:34:03.901Z,6.00
2022-08-09T03:35:24.341Z,5.90
2022-08-09T03:36:28.071Z,6.15
2022-08-09T03:37:55.916Z,5.68
2022-08-09T03:38:52.070Z,5.50
2022-08-09T03:39:56.669Z,5.32
2022-08-09T03:40:58.606Z,5.57
2022-08-09T03:42:06.675Z,6.18
2022-08-09T03:43:08.934Z,5.50
2022-08-09T03:44:13.456Z,5.70
2022-08-09T03:45:17.621Z,5.97
2022-08-09T03:46:39.607Z,5.40
2022-08-09T03:47:41.889Z,5.50
2022-08-09T03:48:51.708Z,5.38
2022-08-09T03:49:58.625Z,5.97
2022-08-09T03:51:01.385Z,5.93
2022-08-09T03:52:04.403Z,6.40
2022-08-09T03:53:10.684Z,5.93
2022-08-09T03:54:14.318Z,5.68
2022-08-09T03:55:17.057Z,6.80
2022-08-09T03:56:19.512Z,6.13
2022-08-09T03:57:22.306Z,5.57
2022-08-09T03:58:24.198Z,5.88
2022-08-09T03:59:53.884Z,6.15
2022-08-09T04:00:50.618Z,6.00
2022-08-09T04:01:54.163Z,6.40
2022-08-09T04:02:57.306Z,5.93
2022-08-09T04:04:03.835Z,6.35
2022-08-09T04:05:26.787Z,6.30
2022-08-09T04:06:30.460Z,6.13
2022-08-09T04:07:47.406Z,6.75
2022-08-09T04:08:54.183Z,6.70
2022-08-09T04:09:56.789Z,5.93
2022-08-09T04:11:01.667Z,6.05
2022-08-09T04:12:11.913Z,6.18
2022-08-09T04:14:36.734Z,6.60
2022-08-09T04:15:01.902Z,6.10
2022-08-09T04:16:20.692Z,6.13
2022-08-09T04:17:23.059Z,6.60
2022-08-09T04:18:25.109Z,6.07
2022-08-09T04:19:30.328Z,5.65
2022-08-09T04:20:48.870Z,6.40
2022-08-09T04:21:50.819Z,6.45
2022-08-09T04:22:54.740Z,7.10
2022-08-09T04:23:57.621Z,6.80
2022-08-09T04:25:01.419Z,7.35
2022-08-09T04:26:05.020Z,6.50
2022-08-09T04:27:07.048Z,7.10
2022-08-09T04:28:10.664Z,7.15
2022-08-09T04:29:15.558Z,7.00
2022-08-09T04:30:20.911Z,6.78
2022-08-09T04:31:26.554Z,7.00
2022-08-09T04:32:45.762Z,6.70
2022-08-09T04:33:52.782Z,7.40
2022-08-09T04:34:59.082Z,6.28
2022-08-09T04:36:03.557Z,7.13
2022-08-09T04:37:05.471Z,6.40
2022-08-09T04:38:07.459Z,6.97
2022-08-09T04:39:09.401Z,6.45
2022-08-09T04:40:28.857Z,6.82
2022-08-09T04:41:43.845Z,6.85
2022-08-09T04:42:45.883Z,6.28
2022-08-09T04:44:07.146Z,6.70
2022-08-09T04:45:13.230Z,6.80
2022-08-09T04:46:36.483Z,6.63
2022-08-09T04:47:59.264Z,6.70
2022-08-09T04:48:58.846Z,7.03
2022-08-09T04:50:01.756Z,7.35
2022-08-09T04:51:03.670Z,6.47
2022-08-09T04:52:07.509Z,7.63
2022-08-09T04:53:13.437Z,6.55
2022-08-09T04:54:15.723Z,7.65
2022-08-09T04:55:19.242Z,7.20
2022-08-09T04:56:26.157Z,6.70
2022-08-09T04:57:53.745Z,7.00
2022-08-09T04:58:50.800Z,6.43
2022-08-09T04:59:54.812Z,6.93
2022-08-09T05:00:57.479Z,6.28
2022-08-09T05:02:02.863Z,6.97
2022-08-09T05:03:30.301Z,7.13
2022-08-09T05:04:30.829Z,6.82
2022-08-09T05:05:51.900Z,7.35
2022-08-09T05:06:54.605Z,7.07
2022-08-09T05:07:58.174Z,7.03
2022-08-09T05:09:01.276Z,6.80
2022-08-09T05:10:04.100Z,7.10
2022-08-09T05:11:07.724Z,6.40
2022-08-09T05:12:11.092Z,7.00
2022-08-09T05:13:14.639Z,7.22
2022-08-09T05:14:16.454Z,6.50
2022-08-09T05:15:38.743Z,7.57
2022-08-09T05:16:58.317Z,7.35
2022-08-09T05:18:42.265Z,7.22
2022-08-09T05:19:25.630Z,5.88
2022-08-09T05:20:29.642Z,7.30
2022-08-09T05:21:46.538Z,6.20
2022-08-09T05:23:55.291Z,6.47
2022-08-09T05:24:12.546Z,6.30
2022-08-09T05:25:16.377Z,6.32
2022-08-09T05:26:22.328Z,6.28
2022-08-09T05:27:34.183Z,6.15
2022-08-09T05:28:47.374Z,6.13
2022-08-09T05:29:49.477Z,6.80
2022-08-09T05:30:52.373Z,6.50
2022-08-09T05:31:57.271Z,6.20
2022-08-09T05:33:01.977Z,6.47
2022-08-09T05:34:03.994Z,7.27
2022-08-09T05:35:06.558Z,7.07
2022-08-09T05:36:09.469Z,7.18
2022-08-09T05:37:12.925Z,7.18
2022-08-09T05:38:21.930Z,7.03
2022-08-09T05:39:28.927Z,6.82
2022-08-09T05:40:31.974Z,6.78
2022-08-09T05:41:33.885Z,7.00
2022-08-09T05:42:36.485Z,6.88
2022-08-09T05:43:39.198Z,7.07
2022-08-09T05:44:47.698Z,6.90
2022-08-09T05:45:57.169Z,6.15
2022-08-09T05:47:00.207Z,5.78
2022-08-09T05:48:02.846Z,6.60
2022-08-09T05:49:07.361Z,6.03
2022-08-09T05:50:25.765Z,6.32
2022-08-09T05:51:42.728Z,6.25
2022-08-09T05:52:53.519Z,6.82
2022-08-09T05:53:57.278Z,5.97
2022-08-09T05:55:03.133Z,6.90
2022-08-09T05:56:09.168Z,6.10
2022-08-09T05:57:19.121Z,5.78
2022-08-09T05:58:21.204Z,5.85
2022-08-09T05:59:23.179Z,6.47
2022-08-09T06:00:29.071Z,6.03
2022-08-09T06:01:33.568Z,6.22
2022-08-09T06:02:36.486Z,6.53
2022-08-09T06:03:54.523Z,5.97
2022-08-09T06:05:00.436Z,5.55
2022-08-09T06:06:06.508Z,6.28
2022-08-09T06:07:09.407Z,5.90
2022-08-09T06:08:11.653Z,6.43
2022-08-09T06:09:40.540Z,6.00
2022-08-09T06:10:38.209Z,5.88
2022-08-09T06:11:40.875Z,6.45
2022-08-09T06:13:11.798Z,6.03
2022-08-09T06:14:14.663Z,5.60
2022-08-09T06:15:17.484Z,6.63
2022-08-09T06:16:19.293Z,5.82
2022-08-09T06:17:21.110Z,6.35
2022-08-09T06:18:24.799Z,6.10
2022-08-09T06:19:27.483Z,5.53
2022-08-09T06:20:30.212Z,6.20
2022-08-09T06:21:32.150Z,6.22
2022-08-09T06:22:34.882Z,6.30
2022-08-09T06:23:55.033Z,6.15
2022-08-09T06:24:58.140Z,5.82
2022-08-09T06:26:00.556Z,5.72
2022-08-09T06:27:03.560Z,5.38
2022-08-09T06:28:07.813Z,5.40
2022-08-09T06:29:15.070Z,5.93
2022-08-09T06:30:17.235Z,6.07
2022-08-09T06:31:19.863Z,5.93
2022-08-09T06:32:59.928Z,5.80
2022-08-09T06:33:55.622Z,6.07
2022-08-09T06:34:59.802Z,5.90
2022-08-09T06:36:01.586Z,5.90
2022-08-09T06:37:03.772Z,5.95
2022-08-09T06:38:08.600Z,6.30
2022-08-09T06:39:12.559Z,4.88
2022-08-09T06:40:21.567Z,5.47
2022-08-09T06:42:07.646Z,6.20
2022-08-09T06:42:50.921Z,5.30
2022-08-09T06:43:53.223Z,5.40
2022-08-09T06:44:55.516Z,5.97
2022-08-09T06:46:07.663Z,6.13
2022-08-09T06:47:12.556Z,5.90
2022-08-09T06:48:16.864Z,6.47
2022-08-09T06:50:11.968Z,5.88
2022-08-09T06:50:54.361Z,5.43
2022-08-09T06:51:56.349Z,5.10
2022-08-09T06:53:00.741Z,5.30
2022-08-09T06:54:02.634Z,5.20
2022-08-09T06:55:12.610Z,5.75
2022-08-09T06:56:14.919Z,5.47
2022-08-09T06:57:17.013Z,5.50
2022-08-09T06:58:40.603Z,5.70
2022-08-09T07:00:50.170Z,5.60
2022-08-09T07:01:04.178Z,5.82
2022-08-09T07:02:06.234Z,5.57
2022-08-09T07:03:08.350Z,5.60
2022-08-09T07:04:20.067Z,5.40
2022-08-09T07:05:22.445Z,5.80
2022-08-09T07:06:25.467Z,5.57
2022-08-09T07:08:00.117Z,5.40
2022-08-09T07:08:51.722Z,5.25
2022-08-09T07:10:14.246Z,4.57
2022-08-09T07:11:17.615Z,5.50
2022-08-09T07:12:38.814Z,5.68
2022-08-09T07:13:45.237Z,5.05
2022-08-09T07:16:36.070Z,5.07
2022-08-09T07:16:41.750Z,4.53
2022-08-09T07:17:55.948Z,4.93
2022-08-09T07:18:58.586Z,5.20
2022-08-09T07:20:00.449Z,5.05
2022-08-09T07:21:02.236Z,5.45
2022-08-09T07:22:04.507Z,4.90
2022-08-09T07:23:18.848Z,5.18
2022-08-09T07:24:21.874Z,5.40
2022-08-09T07:25:42.648Z,5.28
2022-08-09T07:26:45.510Z,4.20
2022-08-09T07:27:53.565Z,5.50
2022-08-09T07:29:08.898Z,4.55
2022-08-09T07:30:15.511Z,5.65
2022-08-09T07:31:20.092Z,4.93
2022-08-09T07:32:33.122Z,5.13
2022-08-09T07:33:53.283Z,5.65
2022-08-09T07:34:57.867Z,4.88
2022-08-09T07:35:59.875Z,5.07
2022-08-09T07:37:02.945Z,4.88
2022-08-09T07:38:05.455Z,5.20
2022-08-09T07:39:11.586Z,4.60
2022-08-09T07:40:20.360Z,5.07
2022-08-09T07:41:33.056Z,4.53
2022-08-09T07:42:54.493Z,4.57
2022-08-09T07:43:56.750Z,3.88
2022-08-09T07:45:02.479Z,4.68
2022-08-09T07:46:08.363Z,4.22
2022-08-09T07:47:15.698Z,4.35
2022-08-09T07:48:25.544Z,4.38
2022-08-09T07:49:32.629Z,4.80
2022-08-09T07:50:40.483Z,5.13
2022-08-09T07:52:05.449Z,4.23
2022-08-09T07:53:05.424Z,4.32
2022-08-09T07:54:08.790Z,3.90
2022-08-09T07:55:11.760Z,4.25
2022-08-09T07:56:26.538Z,3.67
2022-08-09T07:57:33.839Z,3.90
2022-08-09T07:58:38.140Z,4.35
2022-08-09T07:59:51.027Z,3.40
2022-08-09T08:01:06.774Z,4.20
2022-08-09T08:02:19.166Z,3.85
2022-08-09T08:03:22.001Z,3.60
2022-08-09T08:04:32.239Z,3.67
2022-08-09T08:05:53.952Z,3.08
2022-08-09T08:07:00.145Z,3.13
2022-08-09T08:08:59.642Z,3.10
2022-08-09T08:09:34.522Z,3.17
2022-08-09T08:11:03.152Z,3.00
2022-08-09T08:12:25.086Z,3.30
2022-08-09T08:13:28.926Z,2.75
2022-08-09T08:14:41.887Z,3.08
2022-08-09T08:15:44.084Z,2.93
2022-08-09T08:17:00.838Z,4.28
2022-08-09T08:18:07.707Z,2.72
2022-08-09T08:19:11.383Z,3.00
2022-08-09T08:20:14.286Z,2.47
2022-08-09T08:21:16.825Z,2.22
2022-08-09T08:22:18.676Z,2.55
2022-08-09T08:23:27.426Z,2.10
2022-08-09T08:24:35.440Z,2.25
2022-08-09T08:25:46.256Z,1.88
2022-08-09T08:26:55.790Z,1.83
2022-08-09T08:27:58.687Z,1.90
2022-08-09T08:29:00.546Z,1.73
2022-08-09T08:30:06.527Z,2.20
2022-08-09T08:31:14.311Z,1.80
2022-08-09T08:32:24.141Z,1.83
2022-08-09T08:33:40.810Z,1.58
2022-08-09T08:34:55.204Z,2.20
2022-08-09T08:36:03.799Z,2.05
2022-08-09T08:37:07.046Z,1.83
2022-08-09T08:38:17.445Z,1.30
2022-08-09T08:39:22.051Z,1.50
2022-08-09T08:40:25.601Z,1.80
2022-08-09T08:41:50.750Z,1.50
2022-08-09T08:42:54.255Z,1.75
2022-08-09T08:44:03.432Z,1.98
2022-08-09T08:45:13.496Z,1.65
2022-08-09T08:46:32.055Z,1.80
2022-08-09T08:47:34.692Z,1.80
2022-08-09T08:48:51.633Z,1.60
2022-08-09T08:49:56.512Z,1.50
2022-08-09T08:51:06.205Z,2.03
2022-08-09T08:52:10.217Z,1.55
2022-08-09T08:53:16.311Z,1.40
2022-08-09T08:54:30.145Z,1.77
2022-08-09T08:55:32.430Z,1.38
2022-08-09T08:56:38.453Z,1.60
2022-08-09T08:57:42.544Z,1.40
2022-08-09T08:58:46.297Z,1.60
2022-08-09T08:59:49.638Z,1.25
2022-08-09T09:00:58.123Z,1.50
2022-08-09T09:02:00.228Z,1.50
2022-08-09T09:03:12.098Z,1.50
2022-08-09T09:04:27.071Z,1.23
2022-08-09T09:05:57.782Z,1.30
2022-08-09T09:06:57.138Z,1.48
2022-08-09T09:08:01.624Z,1.00
2022-08-09T09:09:06.667Z,0.90
2022-08-09T09:10:26.772Z,1.27
2022-08-09T09:11:29.971Z,1.35
2022-08-09T09:12:36.284Z,1.10
2022-08-09T09:13:54.815Z,1.50
2022-08-09T09:15:00.079Z,1.30
2022-08-09T09:16:03.896Z,1.20
2022-08-09T09:17:06.008Z,1.42
2022-08-09T09:18:15.942Z,1.45
2022-08-09T09:19:37.444Z,1.40
2022-08-09T09:20:40.916Z,1.35
2022-08-09T09:22:23.810Z,1.20
2022-08-09T09:23:57.336Z,1.40
2022-08-09T09:26:02.559Z,1.20
2022-08-09T09:26:26.157Z,1.30
2022-08-09T09:28:05.699Z,1.00
2022-08-09T09:29:03.992Z,1.30
2022-08-09T09:30:40.039Z,1.20
2022-08-09T09:32:06.506Z,1.10
2022-08-09T09:33:15.780Z,1.15
2022-08-09T09:34:19.566Z,1.27
2022-08-09T09:35:21.487Z,1.50
2022-08-09T09:36:23.348Z,1.40
2022-08-09T09:37:32.001Z,1.20
2022-08-09T09:38:48.603Z,1.10
2022-08-09T09:39:56.906Z,1.10
2022-08-09T09:40:59.577Z,1.25
2022-08-09T09:42:08.897Z,1.20
2022-08-09T09:43:21.963Z,1.70
2022-08-09T09:44:34.157Z,1.20
2022-08-09T09:47:16.299Z,1.27
2022-08-09T09:48:19.220Z,1.10
2022-08-09T09:49:31.974Z,1.33
2022-08-09T09:50:50.620Z,1.10
2022-08-09T09:52:16.305Z,1.00
2022-08-09T09:53:57.319Z,1.13
2022-08-09T09:55:02.443Z,1.23
2022-08-09T09:56:19.757Z,1.45
2022-08-09T09:58:03.460Z,1.40
2022-08-09T09:58:48.857Z,1.23
2022-08-09T09:59:52.727Z,1.38
2022-08-09T10:00:58.791Z,1.13
2022-08-09T10:02:02.237Z,1.50
2022-08-09T10:03:11.641Z,1.63
2022-08-09T10:04:22.722Z,1.30
2022-08-09T10:06:01.361Z,1.25
2022-08-09T10:06:54.409Z,1.10
2022-08-09T10:08:26.090Z,1.20
2022-08-09T10:09:28.033Z,0.80
2022-08-09T10:10:31.644Z,1.60
2022-08-09T10:11:59.104Z,1.17
2022-08-09T10:12:56.472Z,1.25
2022-08-09T10:14:02.350Z,1.20
2022-08-09T10:15:25.518Z,1.20
2022-08-09T10:16:56.998Z,0.93
2022-08-09T10:18:11.764Z,1.63
2022-08-09T10:19:14.072Z,1.23
2022-08-09T10:20:32.241Z,1.20
2022-08-09T10:21:49.157Z,0.80
2022-08-09T10:22:59.938Z,1.13
2022-08-09T10:24:04.689Z,1.10
2022-08-09T10:25:12.071Z,1.25
2022-08-09T10:26:19.490Z,1.27
2022-08-09T10:27:22.977Z,1.00
2022-08-09T10:28:33.484Z,0.90
2022-08-09T10:30:43.723Z,1.10
2022-08-09T10:32:39.981Z,1.40
2022-08-09T10:34:08.258Z,1.20
2022-08-09T10:35:05.284Z,0.80
2022-08-09T10:36:12.869Z,1.20
2022-08-09T10:37:14.754Z,1.20
2022-08-09T10:38:54.912Z,1.00
2022-08-09T10:39:48.927Z,1.03
2022-08-09T10:40:51.745Z,1.15
2022-08-09T10:41:53.808Z,1.27
2022-08-09T10:42:57.126Z,1.00
2022-08-09T10:44:02.225Z,1.15
2022-08-09T10:45:11.944Z,1.10
2022-08-09T10:46:57.566Z,1.40
2022-08-09T10:48:29.773Z,1.02
2022-08-09T10:49:54.191Z,1.02
2022-08-09T10:51:13.633Z,1.00
2022-08-09T10:52:27.063Z,1.30
2022-08-09T10:53:54.297Z,1.23
2022-08-09T10:55:18.550Z,1.40
2022-08-09T10:56:25.667Z,1.50
2022-08-09T10:57:37.749Z,1.25
2022-08-09T10:58:40.129Z,1.23
2022-08-09T10:59:55.627Z,1.55
2022-08-09T11:03:02.889Z,1.00
2022-08-09T11:03:14.869Z,1.30
2022-08-09T11:04:27.807Z,1.38
2022-08-09T11:05:32.661Z,1.10
2022-08-09T11:06:38.842Z,1.00
2022-08-09T11:07:54.970Z,1.15
2022-08-09T11:09:15.547Z,1.40
2022-08-09T11:10:53.118Z,1.20
2022-08-09T11:11:58.744Z,1.13
2022-08-09T11:13:49.198Z,1.73
2022-08-09T11:14:47.412Z,1.50
2022-08-09T11:16:04.436Z,1.30
2022-08-09T11:17:13.273Z,1.25
2022-08-09T11:18:45.777Z,1.50
2022-08-09T11:20:22.631Z,1.33
2022-08-09T11:21:57.399Z,1.30
2022-08-09T11:23:10.342Z,2.13
2022-08-09T11:24:13.351Z,1.50
2022-08-09T11:25:47.967Z,1.20
2022-08-09T11:26:54.550Z,1.27
2022-08-09T11:28:04.542Z,1.75
2022-08-09T11:30:05.023Z,1.20
2022-08-09T11:31:49.724Z,1.23
2022-08-09T11:33:07.943Z,1.30
2022-08-09T11:34:24.475Z,1.30
2022-08-09T11:35:54.806Z,1.50
2022-08-09T11:36:59.252Z,1.40
2022-08-09T11:38:16.397Z,1.40
2022-08-09T11:39:19.178Z,1.60
2022-08-09T11:40:24.757Z,1.60
2022-08-09T11:41:38.362Z,1.27
2022-08-09T11:42:47.126Z,1.73
2022-08-09T11:43:52.104Z,1.50
2022-08-09T11:44:55.370Z,1.70
2022-08-09T11:46:01.874Z,1.60
2022-08-09T11:47:03.784Z,1.58
2022-08-09T11:48:18.859Z,1.70
2022-08-09T11:50:54.885Z,1.42
2022-08-09T11:52:56.794Z,1.10
2022-08-09T11:53:44.071Z,1.63
2022-08-09T11:54:30.183Z,1.33
2022-08-09T11:55:53.617Z,1.20
2022-08-09T11:58:00.705Z,1.38
2022-08-09T11:59:01.070Z,1.10
2022-08-09T12:00:16.248Z,1.25
2022-08-09T12:02:16.015Z,1.40
2022-08-09T12:02:53.677Z,1.10
2022-08-09T12:04:23.726Z,1.00
2022-08-09T12:05:42.174Z,1.00
2022-08-09T12:06:57.773Z,1.10
2022-08-09T12:08:00.528Z,0.90
2022-08-09T12:09:20.889Z,1.00
2022-08-09T12:10:38.557Z,1.02
2022-08-09T12:12:02.662Z,1.10
2022-08-09T12:14:10.046Z,1.13
2022-08-09T12:14:48.848Z,0.95
2022-08-09T12:16:29.205Z,1.10
2022-08-09T12:17:43.036Z,0.90
2022-08-09T12:18:53.838Z,0.82
2022-08-09T12:19:59.812Z,1.13
2022-08-09T12:21:04.410Z,1.30
2022-08-09T12:22:27.049Z,1.05
2022-08-09T12:23:56.635Z,1.27
2022-08-09T12:25:14.979Z,0.90
2022-08-09T12:26:19.765Z,1.00
2022-08-09T12:29:10.221Z,1.42
2022-08-09T12:29:13.272Z,1.02
2022-08-09T12:30:36.404Z,1.55
2022-08-09T12:32:02.747Z,1.00
2022-08-09T12:33:03.128Z,1.08
2022-08-09T12:34:05.368Z,1.08
2022-08-09T12:35:10.810Z,1.13
2022-08-09T12:36:27.654Z,0.82
2022-08-09T12:37:50.411Z,1.20
2022-08-09T12:38:54.941Z,0.73
2022-08-09T12:40:10.140Z,0.93
2022-08-09T12:41:12.429Z,1.17
2022-08-09T12:42:16.275Z,1.00
2022-08-09T12:43:20.519Z,0.88
2022-08-09T12:44:25.887Z,1.70
2022-08-09T12:45:39.328Z,1.08
2022-08-09T12:46:49.246Z,1.13
2022-08-09T12:47:52.354Z,0.90
2022-08-09T12:48:57.697Z,1.00
2022-08-09T12:50:19.756Z,0.90
2022-08-09T12:51:52.158Z,1.10
2022-08-09T12:53:17.837Z,1.30
2022-08-09T12:54:10.503Z,1.02
2022-08-09T12:56:14.817Z,0.98
2022-08-09T12:56:53.921Z,0.90
2022-08-09T12:57:58.939Z,1.00
2022-08-09T12:59:15.830Z,0.90
2022-08-09T13:00:25.591Z,1.10
2022-08-09T13:01:28.351Z,1.67
2022-08-09T13:02:45.390Z,0.93
2022-08-09T13:04:36.008Z,1.70
2022-08-09T13:06:14.676Z,0.90
2022-08-09T13:07:16.650Z,1.25
2022-08-09T13:08:39.642Z,0.90
2022-08-09T13:09:52.611Z,1.20
2022-08-09T13:10:58.042Z,1.10
2022-08-09T13:12:04.486Z,1.23
2022-08-09T13:13:08.906Z,0.80
2022-08-09T13:14:41.988Z,1.60
2022-08-09T13:15:52.544Z,0.80
2022-08-09T13:16:56.529Z,0.95
2022-08-09T13:18:09.292Z,1.40
2022-08-09T13:20:09.378Z,1.48
2022-08-09T13:21:20.557Z,1.20
2022-08-09T13:22:37.765Z,1.10
2022-08-09T13:24:15.623Z,1.15
2022-08-09T13:25:07.841Z,1.30
2022-08-09T13:26:42.310Z,1.10
2022-08-09T13:27:55.271Z,1.17
2022-08-09T13:29:06.441Z,0.90
2022-08-09T13:30:50.807Z,1.23
2022-08-09T13:32:14.482Z,1.30
2022-08-09T13:33:24.599Z,1.25
2022-08-09T13:34:46.556Z,0.90
2022-08-09T13:36:24.078Z,0.75
2022-08-09T13:37:12.098Z,1.08
2022-08-09T13:38:17.814Z,1.20
2022-08-09T13:41:46.857Z,1.20
2022-08-09T13:41:51.232Z,1.07
2022-08-09T13:42:22.233Z,0.82
2022-08-09T13:43:35.613Z,1.08
2022-08-09T13:44:42.851Z,0.80
2022-08-09T13:46:44.395Z,1.30
2022-08-09T13:47:33.043Z,1.20
2022-08-09T13:48:34.966Z,0.82
2022-08-09T13:49:56.079Z,1.10
2022-08-09T13:51:00.202Z,0.98
2022-08-09T13:52:02.587Z,1.30
2022-08-09T13:53:11.377Z,1.00
2022-08-09T13:54:13.592Z,0.95
2022-08-09T13:55:17.694Z,0.95
2022-08-09T13:56:22.937Z,1.42
2022-08-09T13:57:36.575Z,1.08
2022-08-09T13:58:41.119Z,1.00
2022-08-09T13:59:43.912Z,1.08
2022-08-09T14:00:50.369Z,1.15
2022-08-09T14:01:56.678Z,1.13
2022-08-09T14:03:58.094Z,0.90
2022-08-09T14:04:26.538Z,1.10
2022-08-09T14:05:57.137Z,1.13
2022-08-09T14:06:58.564Z,1.02
2022-08-09T14:08:03.925Z,1.02
2022-08-09T14:09:06.700Z,1.00
2022-08-09T14:10:17.274Z,1.10
2022-08-09T14:11:41.335Z,1.35
2022-08-09T14:12:49.628Z,1.00
2022-08-09T14:14:24.562Z,1.10
2022-08-09T14:16:06.968Z,1.20
2022-08-09T14:16:35.519Z,1.00
2022-08-09T14:18:06.800Z,0.70
2022-08-09T14:19:00.735Z,1.13
2022-08-09T14:20:04.295Z,1.10
2022-08-09T14:21:08.997Z,1.17
2022-08-09T14:22:10.898Z,1.00
2022-08-09T14:23:20.276Z,1.10
2022-08-09T14:24:34.466Z,0.90
2022-08-09T14:25:42.971Z,1.20
2022-08-09T14:26:46.822Z,1.03
2022-08-09T14:27:57.076Z,1.13
2022-08-09T14:29:07.875Z,1.10
2022-08-09T14:30:36.911Z,1.08
2022-08-09T14:31:50.270Z,1.00
2022-08-09T14:32:55.765Z,1.10
2022-08-09T14:33:59.669Z,1.27
2022-08-09T14:35:07.328Z,1.75
2022-08-09T14:36:19.996Z,1.10
2022-08-09T14:37:28.370Z,1.10
2022-08-09T14:38:30.524Z,0.90
2022-08-09T14:39:45.597Z,1.55
2022-08-09T14:41:04.165Z,1.20
2022-08-09T14:42:11.358Z,1.42
2022-08-09T14:43:16.580Z,1.10
2022-08-09T14:44:32.536Z,1.10
2022-08-09T14:46:57.369Z,1.00
2022-08-09T14:47:12.706Z,1.17
2022-08-09T14:48:18.347Z,1.20
2022-08-09T14:49:23.624Z,1.10
2022-08-09T14:50:25.809Z,1.53
2022-08-09T14:51:28.855Z,1.50
2022-08-09T14:52:32.449Z,1.35
2022-08-09T14:53:38.936Z,1.10
2022-08-09T14:54:41.868Z,1.05
2022-08-09T14:55:49.900Z,1.10
2022-08-09T14:56:57.369Z,1.15
2022-08-09T14:58:03.674Z,1.00
2022-08-09T14:59:08.620Z,1.27
2022-08-09T15:00:17.067Z,1.20
2022-08-09T15:01:20.614Z,1.03
2022-08-09T15:02:22.586Z,1.52
2022-08-09T15:03:25.658Z,1.02
2022-08-09T15:04:28.434Z,1.40
2022-08-09T15:05:31.983Z,1.30
2022-08-09T15:06:33.856Z,1.45
2022-08-09T15:07:35.962Z,1.52
2022-08-09T15:08:39.455Z,1.20
2022-08-09T15:10:10.532Z,1.40
2022-08-09T15:11:07.204Z,1.20
2022-08-09T15:12:11.660Z,1.07
2022-08-09T15:13:15.286Z,0.90
2022-08-09T15:14:19.163Z,1.15
2022-08-09T15:15:22.242Z,0.95
2022-08-09T15:16:30.456Z,1.20
2022-08-09T15:17:33.316Z,1.30
2022-08-09T15:18:44.630Z,1.30
2022-08-09T15:19:58.967Z,1.00
2022-08-09T15:21:57.884Z,1.05
2022-08-09T15:22:25.863Z,1.48
2022-08-09T15:24:01.983Z,1.30
2022-08-09T15:24:50.171Z,1.40
2022-08-09T15:25:55.621Z,0.88
2022-08-09T15:26:57.927Z,1.00
2022-08-09T15:28:04.255Z,1.10
2022-08-09T15:30:55.336Z,1.20
2022-08-09T15:31:01.360Z,1.08
2022-08-09T15:32:29.204Z,1.00
2022-08-09T15:34:17.599Z,1.02
2022-08-09T15:34:54.705Z,1.02
2022-08-09T15:36:02.065Z,1.00
2022-08-09T15:37:37.192Z,0.70
2022-08-09T15:38:40.360Z,0.80
2022-08-09T15:39:53.052Z,0.90
2022-08-09T15:40:55.852Z,1.05
2022-08-09T15:41:57.678Z,0.88
2022-08-09T15:42:59.603Z,0.90
2022-08-09T15:44:02.328Z,1.20
2022-08-09T15:45:06.278Z,1.10
2022-08-09T15:46:32.259Z,1.10
2022-08-09T15:47:47.063Z,1.03
2022-08-09T15:49:21.309Z,1.13
2022-08-09T15:50:18.037Z,0.88
2022-08-09T15:52:01.740Z,0.80
2022-08-09T15:52:54.595Z,1.10